createdAt,value
2019-02-19T00:02:44.819Z,18.60
2019-02-19T00:05:27.447Z,21.13
2019-02-19T00:08:11.365Z,20.87
2019-02-19T00:10:53.859Z,21.57
2019-02-19T00:13:36.739Z,19.53
2019-02-19T00:16:20.561Z,18.63
2019-02-19T00:19:03.285Z,18.30
2019-02-19T00:21:46.205Z,18.50
2019-02-19T00:24:28.648Z,18.70
2019-02-19T00:27:11.843Z,17.27
2019-02-19T00:29:54.566Z,18.50
2019-02-19T00:32:37.723Z,14.47
2019-02-19T00:35:20.589Z,14.93
2019-02-19T00:38:03.550Z,14.77
2019-02-19T00:40:46.309Z,14.47
2019-02-19T00:43:30.513Z,15.43
2019-02-19T00:46:13.660Z,15.60
2019-02-19T00:48:57.481Z,17.00
2019-02-19T00:51:40.396Z,16.23
2019-02-19T00:54:22.722Z,15.77
2019-02-19T00:57:05.706Z,15.00
2019-02-19T00:59:48.376Z,17.27
2019-02-19T01:02:31.430Z,17.83
2019-02-19T01:05:14.543Z,16.50
2019-02-19T01:07:57.312Z,17.83
2019-02-19T01:10:40.350Z,18.13
2019-02-19T01:13:23.347Z,19.13
2019-02-19T01:16:06.296Z,17.47
2019-02-19T01:18:50.273Z,16.13
2019-02-19T01:21:33.427Z,18.00
2019-02-19T01:24:16.238Z,16.30
2019-02-19T01:26:59.163Z,15.57
2019-02-19T01:29:42.347Z,16.13
2019-02-19T01:32:25.098Z,16.23
2019-02-19T01:35:09.235Z,14.60
2019-02-19T01:37:51.935Z,14.90
2019-02-19T01:40:34.783Z,16.50
2019-02-19T01:43:17.669Z,11.87
2019-02-19T01:46:01.529Z,10.00
2019-02-19T01:48:44.248Z,12.07
2019-02-19T01:51:30.489Z,12.47
2019-02-19T01:54:13.380Z,13.53
2019-02-19T01:56:56.011Z,13.57
2019-02-19T01:59:38.799Z,13.37
2019-02-19T02:02:22.064Z,13.33
2019-02-19T02:05:05.351Z,14.53
2019-02-19T02:07:48.326Z,12.90
2019-02-19T02:10:31.196Z,12.93
2019-02-19T02:13:18.133Z,12.57
2019-02-19T02:16:01.007Z,11.60
2019-02-19T02:18:43.599Z,13.53
2019-02-19T02:21:27.306Z,12.80
2019-02-19T02:27:07.583Z,14.67
2019-02-19T02:29:57.534Z,13.40
2019-02-19T02:32:40.504Z,13.60
2019-02-19T02:35:23.418Z,13.77
2019-02-19T02:38:10.093Z,12.73
2019-02-19T02:40:55.123Z,12.37
2019-02-19T02:43:38.308Z,14.10
2019-02-19T02:46:20.598Z,12.37
2019-02-19T02:49:03.425Z,13.77
2019-02-19T02:51:53.252Z,12.87
2019-02-19T02:57:36.727Z,13.03
2019-02-19T03:00:26.620Z,11.30
2019-02-19T03:03:09.649Z,11.43
2019-02-19T03:08:59.246Z,10.97
2019-02-19T03:11:49.194Z,12.20
2019-02-19T03:14:35.559Z,12.03
2019-02-19T03:17:22.716Z,12.33
2019-02-19T03:20:06.267Z,12.40
2019-02-19T03:22:53.443Z,12.17
2019-02-19T03:28:32.806Z,11.23
2019-02-19T03:31:15.804Z,12.47
2019-02-19T03:33:58.417Z,11.53
2019-02-19T03:36:48.206Z,11.23
2019-02-19T03:39:30.661Z,11.17
2019-02-19T03:42:13.647Z,9.93
2019-02-19T03:44:56.287Z,10.00
2019-02-19T03:47:46.152Z,10.80
2019-02-19T03:50:29.122Z,11.97
2019-02-19T03:53:12.226Z,10.33
2019-02-19T03:55:55.032Z,10.87
2019-02-19T03:58:44.899Z,11.00
2019-02-19T04:01:27.384Z,9.57
2019-02-19T04:04:09.774Z,10.17
2019-02-19T04:06:52.686Z,10.00
2019-02-19T04:12:37.348Z,11.33
2019-02-19T04:15:27.241Z,10.77
2019-02-19T04:18:09.599Z,11.30
2019-02-19T04:23:53.869Z,10.00
2019-02-19T04:26:43.713Z,9.43
2019-02-19T04:32:30.980Z,10.77
2019-02-19T04:35:13.859Z,9.90
2019-02-19T04:37:56.588Z,9.17
2019-02-19T04:40:39.467Z,11.20
2019-02-19T04:43:22.312Z,10.60
2019-02-19T04:46:12.132Z,10.00
2019-02-19T04:48:55.153Z,10.30
2019-02-19T04:51:37.841Z,10.73
2019-02-19T04:54:20.837Z,10.63
2019-02-19T05:03:07.568Z,11.70
2019-02-19T05:05:50.396Z,12.03
2019-02-19T05:08:33.143Z,13.30
2019-02-19T05:11:16.097Z,12.30
2019-02-19T05:13:59.349Z,11.57
2019-02-19T05:16:45.818Z,12.23
2019-02-19T05:19:28.288Z,12.83
2019-02-19T05:25:15.675Z,14.20
2019-02-19T05:28:05.481Z,12.27
2019-02-19T05:30:48.075Z,15.00
2019-02-19T05:33:37.976Z,17.77
2019-02-19T05:36:21.537Z,19.10
2019-02-19T05:39:05.219Z,17.53
2019-02-19T05:41:47.877Z,16.97
2019-02-19T05:44:37.674Z,15.27
2019-02-19T05:47:20.229Z,15.93
2019-02-19T05:50:06.267Z,15.40
2019-02-19T05:52:50.082Z,15.33
2019-02-19T05:55:40.093Z,15.03
2019-02-19T05:58:22.699Z,13.80
2019-02-19T06:00:53.365Z,14.20
2019-02-19T06:03:35.764Z,13.63
2019-02-19T06:09:27.250Z,15.33
2019-02-19T06:12:10.955Z,13.37
2019-02-19T06:14:56.225Z,14.97
2019-02-19T06:17:40.038Z,13.57
2019-02-19T06:20:23.309Z,11.43
2019-02-19T06:23:05.915Z,13.17
2019-02-19T06:25:50.735Z,13.17
2019-02-19T06:31:34.883Z,14.47
2019-02-19T06:34:24.721Z,15.03
2019-02-19T06:37:07.661Z,16.50
2019-02-19T06:39:57.416Z,15.37
2019-02-19T06:42:46.514Z,15.13
2019-02-19T06:45:36.276Z,16.57
2019-02-19T06:48:19.144Z,16.27
2019-02-19T06:57:05.169Z,16.80
2019-02-19T06:59:48.718Z,17.13
2019-02-19T07:02:34.386Z,17.50
2019-02-19T07:05:18.696Z,15.73
2019-02-19T07:08:01.813Z,15.53
2019-02-19T07:10:44.757Z,17.27
2019-02-19T07:13:27.524Z,17.00
2019-02-19T07:16:10.385Z,17.33
2019-02-19T07:18:53.039Z,16.53
2019-02-19T07:21:35.527Z,17.57
2019-02-19T07:24:22.176Z,15.60
2019-02-19T07:27:05.865Z,16.73
2019-02-19T07:29:48.828Z,17.10
2019-02-19T07:32:31.163Z,18.33
2019-02-19T07:35:14.102Z,18.13
2019-02-19T07:37:56.788Z,17.47
2019-02-19T07:40:39.720Z,18.03
2019-02-19T07:43:22.519Z,18.53
2019-02-19T07:46:05.490Z,18.27
2019-02-19T07:48:48.174Z,17.40
2019-02-19T07:51:31.526Z,17.20
2019-02-19T07:54:14.704Z,17.03
2019-02-19T07:56:58.782Z,16.67
2019-02-19T07:59:41.782Z,17.20
2019-02-19T08:02:24.574Z,16.50
2019-02-19T08:05:07.081Z,17.60
2019-02-19T08:07:49.537Z,19.20
2019-02-19T08:10:32.231Z,18.43
2019-02-19T08:13:20.959Z,18.63
2019-02-19T08:16:04.031Z,18.43
2019-02-19T08:18:47.019Z,18.43
2019-02-19T08:21:30.254Z,18.87
2019-02-19T08:24:12.636Z,20.03
2019-02-19T08:26:55.962Z,19.67
2019-02-19T08:29:39.245Z,19.10
2019-02-19T08:32:22.043Z,21.37
2019-02-19T08:35:06.421Z,18.70
2019-02-19T08:37:49.904Z,19.30
2019-02-19T08:40:32.607Z,19.77
2019-02-19T08:43:15.071Z,19.87
2019-02-19T08:45:58.872Z,20.73
2019-02-19T08:48:41.819Z,20.60
2019-02-19T08:51:24.737Z,19.93
2019-02-19T08:54:11.553Z,21.37
2019-02-19T08:56:54.472Z,22.43
2019-02-19T08:59:37.454Z,19.67
2019-02-19T09:02:21.477Z,20.63
2019-02-19T09:05:05.297Z,21.03
2019-02-19T09:07:48.255Z,20.50
2019-02-19T09:10:31.179Z,20.70
2019-02-19T09:13:14.916Z,21.30
2019-02-19T09:15:57.731Z,21.80
2019-02-19T09:18:39.987Z,21.00
2019-02-19T09:21:23.019Z,22.23
2019-02-19T09:24:12.835Z,22.63
2019-02-19T09:26:55.939Z,21.70
2019-02-19T09:29:39.421Z,22.97
2019-02-19T09:32:22.054Z,22.47
2019-02-19T09:38:13.545Z,22.90
2019-02-19T09:41:00.620Z,22.67
2019-02-19T09:43:43.123Z,22.40
2019-02-19T09:46:32.860Z,23.93
2019-02-19T09:49:16.054Z,22.30
2019-02-19T09:51:59.074Z,21.80
2019-02-19T09:54:42.066Z,21.30
2019-02-19T09:57:32.726Z,21.27
2019-02-19T10:00:21.937Z,20.27
2019-02-19T10:06:13.573Z,19.07
2019-02-19T10:08:56.767Z,19.27
2019-02-19T10:11:39.557Z,19.13
2019-02-19T10:14:22.642Z,18.43
2019-02-19T10:17:05.628Z,18.07
2019-02-19T10:19:55.809Z,18.03
2019-02-19T10:22:38.215Z,18.23
2019-02-19T10:25:22.204Z,17.10
2019-02-19T10:28:05.178Z,17.13
2019-02-19T10:30:48.967Z,17.73
2019-02-19T10:33:31.638Z,18.70
2019-02-19T10:36:14.643Z,18.97
2019-02-19T10:38:57.454Z,19.60
2019-02-19T10:41:47.263Z,18.67
2019-02-19T10:44:30.446Z,19.03
2019-02-19T10:47:13.458Z,19.83
2019-02-19T10:49:56.260Z,19.60
2019-02-19T10:55:48.879Z,19.67
2019-02-19T10:58:31.628Z,20.23
2019-02-19T11:01:14.693Z,20.30
2019-02-19T11:04:24.723Z,18.37
2019-02-19T11:07:07.944Z,20.60
2019-02-19T11:09:50.615Z,18.90
2019-02-19T11:12:33.559Z,19.77
2019-02-19T11:18:15.057Z,18.70
2019-02-19T11:20:57.733Z,19.87
2019-02-19T11:23:40.479Z,19.70
2019-02-19T11:29:25.516Z,18.30
2019-02-19T11:32:12.868Z,19.00
2019-02-19T11:34:56.041Z,19.03
2019-02-19T11:43:43.062Z,19.37
2019-02-19T11:46:26.342Z,20.03
2019-02-19T11:49:09.155Z,21.37
2019-02-19T11:51:51.754Z,20.77
2019-02-19T11:54:34.317Z,21.60
2019-02-19T11:57:18.444Z,19.93
2019-02-19T12:00:03.073Z,21.10
2019-02-19T12:02:45.720Z,20.07
2019-02-19T12:05:28.901Z,22.87
2019-02-19T12:08:12.666Z,20.73
2019-02-19T12:10:54.913Z,21.83
2019-02-19T12:13:37.910Z,22.03
2019-02-19T12:16:20.794Z,22.77
2019-02-19T12:19:04.050Z,21.73
2019-02-19T12:21:46.910Z,22.83
2019-02-19T12:24:33.740Z,23.33
2019-02-19T12:27:16.644Z,22.23
2019-02-19T12:30:04.016Z,23.87
2019-02-19T12:32:47.656Z,22.77
2019-02-19T12:35:30.285Z,23.80
2019-02-19T12:38:13.842Z,23.07
2019-02-19T12:41:00.600Z,22.47
2019-02-19T12:43:44.666Z,23.00
2019-02-19T12:46:31.918Z,23.10
2019-02-19T12:52:13.052Z,22.17
2019-02-19T12:58:10.278Z,23.50
2019-02-19T13:00:53.231Z,23.80
2019-02-19T13:03:36.205Z,23.93
2019-02-19T13:09:28.023Z,25.60
2019-02-19T13:12:10.744Z,24.57
2019-02-19T13:14:53.705Z,23.93
2019-02-19T13:20:48.453Z,25.30
2019-02-19T13:23:31.085Z,25.17
2019-02-19T13:26:13.802Z,24.83
2019-02-19T13:29:03.677Z,25.60
2019-02-19T13:31:51.898Z,23.47
2019-02-19T13:34:39.597Z,24.93
2019-02-19T13:37:22.348Z,24.50
2019-02-19T13:40:32.942Z,24.60
2019-02-19T13:43:16.027Z,23.87
2019-02-19T13:45:58.715Z,23.87
2019-02-19T13:48:41.541Z,23.87
2019-02-19T13:51:31.355Z,23.63
2019-02-19T13:54:15.435Z,23.07
2019-02-19T13:56:58.604Z,25.37
2019-02-19T13:59:41.337Z,24.07
2019-02-19T14:02:31.152Z,24.13
2019-02-19T14:05:14.092Z,23.57
2019-02-19T14:07:56.748Z,22.90
2019-02-19T14:10:39.521Z,23.37
2019-02-19T14:13:29.327Z,24.20
2019-02-19T14:16:21.427Z,24.33
2019-02-19T14:19:06.133Z,25.03
2019-02-19T14:22:08.414Z,24.33
2019-02-19T14:25:17.422Z,25.40
2019-02-19T14:31:02.813Z,24.83
2019-02-19T14:37:12.805Z,24.93
2019-02-19T14:40:15.271Z,25.80
2019-02-19T14:43:05.973Z,25.80
2019-02-19T14:46:08.223Z,25.40
2019-02-19T14:48:53.024Z,25.37
2019-02-19T14:57:56.268Z,24.73
2019-02-19T15:01:01.929Z,25.80
2019-02-19T15:03:48.671Z,25.33
2019-02-19T15:06:57.108Z,25.37
2019-02-19T15:09:44.500Z,25.00
2019-02-19T15:12:38.393Z,27.17
2019-02-19T15:15:40.126Z,28.33
2019-02-19T15:21:25.637Z,26.43
2019-02-19T15:27:25.972Z,27.20
2019-02-19T15:33:25.950Z,25.67
2019-02-19T15:36:13.435Z,27.17
2019-02-19T15:38:58.024Z,26.97
2019-02-19T15:42:07.066Z,25.50
2019-02-19T15:45:09.225Z,27.57
2019-02-19T15:47:54.080Z,26.33
2019-02-19T15:51:02.123Z,28.30
2019-02-19T15:57:04.125Z,28.33
2019-02-19T16:00:13.136Z,28.23
2019-02-19T16:02:58.123Z,28.07
2019-02-19T16:05:42.436Z,29.33
2019-02-19T16:11:30.948Z,27.30
2019-02-19T16:14:34.797Z,27.37
2019-02-19T16:20:51.294Z,26.63
2019-02-19T16:23:53.891Z,27.67
2019-02-19T16:26:39.100Z,26.50
2019-02-19T16:33:10.943Z,30.07
2019-02-19T16:39:12.959Z,30.00
2019-02-19T16:45:22.358Z,30.67
2019-02-19T16:48:09.792Z,32.80
2019-02-19T16:50:53.739Z,33.30
2019-02-19T16:54:02.681Z,31.10
2019-02-19T17:00:06.280Z,31.87
2019-02-19T17:03:15.244Z,32.50
2019-02-19T17:09:21.597Z,32.60
2019-02-19T17:12:06.756Z,33.20
2019-02-19T17:15:10.465Z,32.13
2019-02-19T17:24:05.205Z,30.57
2019-02-19T17:27:14.173Z,32.10
2019-02-19T17:30:16.442Z,31.17
2019-02-19T17:33:02.399Z,30.77
2019-02-19T17:35:47.224Z,32.37
2019-02-19T17:38:31.687Z,31.03
2019-02-19T17:41:18.610Z,31.10
2019-02-19T17:44:31.530Z,31.47
2019-02-19T17:47:33.636Z,31.90
2019-02-19T17:50:40.813Z,31.70
2019-02-19T17:53:32.611Z,32.80
2019-02-19T17:56:16.864Z,32.47
2019-02-19T17:59:01.483Z,31.90
2019-02-19T18:04:53.154Z,33.43
2019-02-19T18:08:02.057Z,31.47
2019-02-19T18:11:03.941Z,33.30
2019-02-19T18:14:00.787Z,34.90
2019-02-19T18:16:34.172Z,33.03
2019-02-19T18:19:04.752Z,34.70
2019-02-19T18:21:35.934Z,31.83
2019-02-19T18:24:06.555Z,32.20
2019-02-19T18:26:36.978Z,37.87
2019-02-19T18:29:07.494Z,37.90
2019-02-19T18:31:38.047Z,38.53
2019-02-19T18:34:08.633Z,39.40
2019-02-19T18:36:39.021Z,38.70
2019-02-19T18:39:09.807Z,39.90
2019-02-19T18:41:40.449Z,39.67
2019-02-19T18:44:10.909Z,40.77
2019-02-19T18:46:43.258Z,38.40
2019-02-19T18:49:13.875Z,37.63
2019-02-19T18:51:44.369Z,39.23
2019-02-19T18:54:14.843Z,36.77
2019-02-19T18:56:45.452Z,36.90
2019-02-19T18:59:16.236Z,40.83
2019-02-19T19:01:46.661Z,42.30
2019-02-19T19:04:17.167Z,40.67
2019-02-19T19:06:47.710Z,39.17
2019-02-19T19:09:18.296Z,38.43
2019-02-19T19:11:48.889Z,40.43
2019-02-19T19:14:19.453Z,40.53
2019-02-19T19:16:49.837Z,38.67
2019-02-19T19:19:20.342Z,38.33
2019-02-19T19:21:50.948Z,37.47
2019-02-19T19:24:21.467Z,39.37
2019-02-19T19:26:52.085Z,37.63
2019-02-19T19:29:22.748Z,33.87
2019-02-19T19:31:53.258Z,34.13
2019-02-19T19:34:23.688Z,34.20
2019-02-19T19:36:54.157Z,32.73
2019-02-19T19:39:25.532Z,34.80
2019-02-19T19:41:56.040Z,32.90
2019-02-19T19:44:26.512Z,32.43
2019-02-19T19:46:57.806Z,31.87
2019-02-19T19:49:28.390Z,31.87
2019-02-19T19:51:58.955Z,29.70
2019-02-19T19:54:29.495Z,29.87
2019-02-19T19:57:00.062Z,32.27
2019-02-19T19:59:30.566Z,30.10
2019-02-19T20:02:01.056Z,30.40
2019-02-19T20:04:33.245Z,31.50
2019-02-19T20:07:03.919Z,30.57
2019-02-19T20:09:34.337Z,30.43
2019-02-19T20:12:04.975Z,32.73
2019-02-19T20:14:35.512Z,30.90
2019-02-19T20:17:06.123Z,29.70
2019-02-19T20:19:36.716Z,30.43
2019-02-19T20:22:07.626Z,31.43
2019-02-19T20:24:38.066Z,33.50
2019-02-19T20:27:08.724Z,33.17
2019-02-19T20:29:39.416Z,35.40
2019-02-19T20:32:10.033Z,34.67
2019-02-19T20:34:41.265Z,32.77
2019-02-19T20:37:12.254Z,32.73
2019-02-19T20:39:42.760Z,32.97
2019-02-19T20:42:13.343Z,33.97
2019-02-19T20:44:43.840Z,36.10
2019-02-19T20:47:15.159Z,33.53
2019-02-19T20:49:45.638Z,33.43
2019-02-19T20:52:16.671Z,32.50
2019-02-19T20:54:47.322Z,33.67
2019-02-19T20:57:17.805Z,32.93
2019-02-19T20:59:48.380Z,30.90
2019-02-19T21:02:19.020Z,32.93
2019-02-19T21:04:49.870Z,33.20
2019-02-19T21:07:20.867Z,35.93
2019-02-19T21:09:51.447Z,33.33
2019-02-19T21:12:21.995Z,33.03
2019-02-19T21:14:52.455Z,32.13
2019-02-19T21:17:22.863Z,34.10
2019-02-19T21:19:53.324Z,34.77
2019-02-19T21:22:23.825Z,31.27
2019-02-19T21:24:54.763Z,30.83
2019-02-19T21:27:25.286Z,30.87
2019-02-19T21:29:57.280Z,28.63
2019-02-19T21:32:27.766Z,28.83
2019-02-19T21:34:58.251Z,30.93
2019-02-19T21:37:28.815Z,31.73
2019-02-19T21:39:59.388Z,30.03
2019-02-19T21:42:29.875Z,31.73
2019-02-19T21:45:00.450Z,30.00
2019-02-19T21:47:31.859Z,33.13
2019-02-19T21:50:02.303Z,32.57
2019-02-19T21:52:32.905Z,33.17
2019-02-19T21:55:04.641Z,33.33
2019-02-19T21:57:35.297Z,37.57
2019-02-19T22:00:19.580Z,35.03
2019-02-19T22:02:50.202Z,32.90
2019-02-19T22:05:20.703Z,36.63
2019-02-19T22:07:51.219Z,32.63
2019-02-19T22:10:21.748Z,34.07
2019-02-19T22:12:52.397Z,33.67
2019-02-19T22:15:22.838Z,32.07
2019-02-19T22:17:53.349Z,34.20
2019-02-19T22:20:42.114Z,35.63
2019-02-19T22:23:12.769Z,34.77
2019-02-19T22:25:43.354Z,34.90
2019-02-19T22:28:13.932Z,33.93
2019-02-19T22:30:44.409Z,38.53
2019-02-19T22:33:14.848Z,34.50
2019-02-19T22:35:45.220Z,34.93
2019-02-19T22:38:16.344Z,34.67
2019-02-19T22:40:54.827Z,33.47
2019-02-19T22:43:18.988Z,37.80
2019-02-19T22:45:49.450Z,38.97
2019-02-19T22:48:23.909Z,35.27
2019-02-19T22:50:54.454Z,33.30
2019-02-19T22:53:42.345Z,33.60
2019-02-19T22:56:17.397Z,33.07
2019-02-19T22:58:47.886Z,34.70
2019-02-19T23:01:32.052Z,34.97
2019-02-19T23:04:03.550Z,38.03
2019-02-19T23:06:34.052Z,36.10
2019-02-19T23:09:05.458Z,37.67
2019-02-19T23:11:36.080Z,33.80
2019-02-19T23:14:06.683Z,37.83
2019-02-19T23:16:37.083Z,31.40
2019-02-19T23:19:07.719Z,35.40
2019-02-19T23:21:38.337Z,34.33
2019-02-19T23:24:08.920Z,33.47
2019-02-19T23:26:39.349Z,33.93
2019-02-19T23:29:09.911Z,38.93
2019-02-19T23:31:40.469Z,35.27
2019-02-19T23:34:11.101Z,35.13
2019-02-19T23:36:43.491Z,37.73
2019-02-19T23:39:13.961Z,37.07
2019-02-19T23:41:44.491Z,35.33
2019-02-19T23:44:14.941Z,35.17
2019-02-19T23:46:45.486Z,33.33
2019-02-19T23:49:16.684Z,31.63
2019-02-19T23:51:47.867Z,32.33
2019-02-19T23:54:18.445Z,31.90
2019-02-19T23:56:48.995Z,33.23
2019-02-19T23:59:19.511Z,31.97
